sensor_id;sensor_type;location;lat;lon;timestamp;noise_LAeq;noise_LA_min;noise_LA_max;noise_LA01;noise_LA95
63692;Laerm;49838;51.798;10.954;2024-01-16T00:01:20;43.01;33.40;57.61;;
63692;Laerm;49838;51.798;10.954;2024-01-16T00:03:47;47.92;36.38;67.83;;
63692;Laerm;49838;51.798;10.954;2024-01-16T00:06:15;48.04;33.29;66.10;;
63692;Laerm;49838;51.798;10.954;2024-01-16T00:08:43;41.81;33.36;58.73;;
63692;Laerm;49838;51.798;10.954;2024-01-16T00:11:10;44.05;34.74;65.36;;
63692;Laerm;49838;51.798;10.954;2024-01-16T00:13:37;50.44;39.47;70.14;;
63692;Laerm;49838;51.798;10.954;2024-01-16T00:16:05;46.47;36.63;62.21;;
63692;Laerm;49838;51.798;10.954;2024-01-16T00:18:32;47.54;36.93;69.21;;
63692;Laerm;49838;51.798;10.954;2024-01-16T00:21:00;48.51;35.38;72.86;;
63692;Laerm;49838;51.798;10.954;2024-01-16T00:23:28;43.95;34.24;63.26;;
63692;Laerm;49838;51.798;10.954;2024-01-16T00:25:57;46.51;31.36;63.51;;
63692;Laerm;49838;51.798;10.954;2024-01-16T00:28:24;38.85;30.58;57.58;;
63692;Laerm;49838;51.798;10.954;2024-01-16T00:30:52;49.08;32.70;64.77;;
63692;Laerm;49838;51.798;10.954;2024-01-16T00:33:19;47.26;32.57;71.51;;
63692;Laerm;49838;51.798;10.954;2024-01-16T00:35:46;45.94;31.92;65.20;;
63692;Laerm;49838;51.798;10.954;2024-01-16T00:38:13;41.26;32.94;59.09;;
63692;Laerm;49838;51.798;10.954;2024-01-16T00:40:42;39.19;31.79;52.65;;
63692;Laerm;49838;51.798;10.954;2024-01-16T00:43:09;38.34;30.76;53.46;;
63692;Laerm;49838;51.798;10.954;2024-01-16T00:45:37;39.24;30.06;62.89;;
63692;Laerm;49838;51.798;10.954;2024-01-16T00:48:05;36.31;30.22;52.40;;
63692;Laerm;49838;51.798;10.954;2024-01-16T00:50:32;39.40;30.48;59.19;;
63692;Laerm;49838;51.798;10.954;2024-01-16T00:52:59;35.42;29.84;53.80;;
63692;Laerm;49838;51.798;10.954;2024-01-16T00:55:26;37.54;30.58;46.63;;
63692;Laerm;49838;51.798;10.954;2024-01-16T00:57:55;40.04;31.18;58.48;;
63692;Laerm;49838;51.798;10.954;2024-01-16T01:00:22;35.90;30.18;52.55;;
63692;Laerm;49838;51.798;10.954;2024-01-16T01:02:49;39.15;32.38;55.04;;
63692;Laerm;49838;51.798;10.954;2024-01-16T01:05:17;40.07;30.55;62.03;;
63692;Laerm;49838;51.798;10.954;2024-01-16T01:07:44;43.08;32.27;63.98;;
63692;Laerm;49838;51.798;10.954;2024-01-16T01:10:11;44.88;31.14;63.75;;
63692;Laerm;49838;51.798;10.954;2024-01-16T01:12:39;37.81;32.75;51.26;;
63692;Laerm;49838;51.798;10.954;2024-01-16T01:15:08;42.75;33.79;56.64;;
63692;Laerm;49838;51.798;10.954;2024-01-16T01:17:36;41.43;32.90;58.16;;
63692;Laerm;49838;51.798;10.954;2024-01-16T01:20:04;47.25;32.99;64.43;;
63692;Laerm;49838;51.798;10.954;2024-01-16T01:22:32;38.89;32.57;55.60;;
63692;Laerm;49838;51.798;10.954;2024-01-16T01:24:59;43.36;34.00;61.46;;
63692;Laerm;49838;51.798;10.954;2024-01-16T01:27:26;46.55;35.14;61.79;;
63692;Laerm;49838;51.798;10.954;2024-01-16T01:29:53;37.02;30.90;49.03;;
63692;Laerm;49838;51.798;10.954;2024-01-16T01:32:22;37.06;30.48;60.62;;
63692;Laerm;49838;51.798;10.954;2024-01-16T01:34:50;44.51;30.24;64.95;;
63692;Laerm;49838;51.798;10.954;2024-01-16T01:37:17;39.31;29.90;58.02;;
63692;Laerm;49838;51.798;10.954;2024-01-16T01:39:44;45.28;32.53;66.78;;
63692;Laerm;49838;51.798;10.954;2024-01-16T01:42:11;41.66;32.04;70.29;;
63692;Laerm;49838;51.798;10.954;2024-01-16T01:44:39;50.33;34.07;70.15;;
63692;Laerm;49838;51.798;10.954;2024-01-16T01:47:08;46.91;37.31;60.07;;
63692;Laerm;49838;51.798;10.954;2024-01-16T01:49:37;48.32;36.89;64.63;;
63692;Laerm;49838;51.798;10.954;2024-01-16T01:52:05;48.38;35.47;70.53;;
63692;Laerm;49838;51.798;10.954;2024-01-16T01:54:35;48.24;35.68;68.04;;
63692;Laerm;49838;51.798;10.954;2024-01-16T01:57:03;40.10;31.73;62.74;;
63692;Laerm;49838;51.798;10.954;2024-01-16T01:59:31;42.42;32.56;57.87;;
63692;Laerm;49838;51.798;10.954;2024-01-16T02:01:59;42.12;33.15;58.88;;
63692;Laerm;49838;51.798;10.954;2024-01-16T02:04:28;47.02;33.89;61.67;;
63692;Laerm;49838;51.798;10.954;2024-01-16T02:06:57;41.56;31.86;63.50;;
63692;Laerm;49838;51.798;10.954;2024-01-16T02:09:25;36.50;31.61;52.57;;
63692;Laerm;49838;51.798;10.954;2024-01-16T02:11:52;39.53;32.87;56.10;;
63692;Laerm;49838;51.798;10.954;2024-01-16T02:14:19;47.18;31.81;72.70;;
63692;Laerm;49838;51.798;10.954;2024-01-16T02:16:47;51.48;34.39;70.81;;
63692;Laerm;49838;51.798;10.954;2024-01-16T02:19:14;42.15;33.20;56.02;;
63692;Laerm;49838;51.798;10.954;2024-01-16T02:21:44;40.00;31.00;58.12;;
63692;Laerm;49838;51.798;10.954;2024-01-16T02:24:15;41.44;31.40;56.54;;
63692;Laerm;49838;51.798;10.954;2024-01-16T02:26:43;40.52;30.88;56.09;;
63692;Laerm;49838;51.798;10.954;2024-01-16T02:29:10;38.07;31.42;51.04;;
63692;Laerm;49838;51.798;10.954;2024-01-16T02:31:38;38.90;29.68;56.51;;
63692;Laerm;49838;51.798;10.954;2024-01-16T02:34:05;40.05;29.76;56.92;;
63692;Laerm;49838;51.798;10.954;2024-01-16T02:36:32;32.75;28.78;48.96;;
63692;Laerm;49838;51.798;10.954;2024-01-16T02:39:00;36.61;30.19;52.02;;
63692;Laerm;49838;51.798;10.954;2024-01-16T02:41:28;42.31;34.96;58.75;;
63692;Laerm;49838;51.798;10.954;2024-01-16T02:43:56;43.72;33.31;64.92;;
63692;Laerm;49838;51.798;10.954;2024-01-16T02:46:23;37.47;29.90;58.47;;
63692;Laerm;49838;51.798;10.954;2024-01-16T02:48:50;34.94;30.45;52.76;;
63692;Laerm;49838;51.798;10.954;2024-01-16T02:51:17;43.11;32.61;59.67;;
63692;Laerm;49838;51.798;10.954;2024-01-16T02:53:45;37.57;31.79;50.73;;
63692;Laerm;49838;51.798;10.954;2024-01-16T02:56:12;45.27;34.49;65.71;;
63692;Laerm;49838;51.798;10.954;2024-01-16T02:58:41;38.86;32.86;56.74;;
63692;Laerm;49838;51.798;10.954;2024-01-16T03:01:08;36.07;30.59;53.19;;
63692;Laerm;49838;51.798;10.954;2024-01-16T03:03:35;38.63;31.20;54.75;;
63692;Laerm;49838;51.798;10.954;2024-01-16T03:06:03;41.03;30.86;60.64;;
63692;Laerm;49838;51.798;10.954;2024-01-16T03:08:30;49.88;32.56;67.55;;
63692;Laerm;49838;51.798;10.954;2024-01-16T03:10:58;38.58;32.12;54.09;;
63692;Laerm;49838;51.798;10.954;2024-01-16T03:13:25;41.41;32.87;62.15;;
63692;Laerm;49838;51.798;10.954;2024-01-16T03:15:53;39.76;33.39;59.14;;
63692;Laerm;49838;51.798;10.954;2024-01-16T03:18:21;49.55;32.32;66.68;;
63692;Laerm;49838;51.798;10.954;2024-01-16T03:20:48;38.48;32.45;53.19;;
63692;Laerm;49838;51.798;10.954;2024-01-16T03:23:15;37.37;32.17;50.78;;
63692;Laerm;49838;51.798;10.954;2024-01-16T03:25:42;45.29;33.28;64.93;;
63692;Laerm;49838;51.798;10.954;2024-01-16T03:28:10;42.44;31.37;61.37;;
63692;Laerm;49838;51.798;10.954;2024-01-16T03:30:37;37.68;32.53;56.15;;
63692;Laerm;49838;51.798;10.954;2024-01-16T03:33:06;38.63;33.23;49.22;;
63692;Laerm;49838;51.798;10.954;2024-01-16T03:35:33;37.43;32.41;54.48;;
63692;Laerm;49838;51.798;10.954;2024-01-16T03:38:00;36.02;31.95;47.27;;
63692;Laerm;49838;51.798;10.954;2024-01-16T03:40:27;46.52;31.48;63.04;;
63692;Laerm;49838;51.798;10.954;2024-01-16T03:42:59;37.85;30.67;50.38;;
63692;Laerm;49838;51.798;10.954;2024-01-16T03:45:27;36.40;31.69;50.46;;
63692;Laerm;49838;51.798;10.954;2024-01-16T03:47:54;37.44;31.41;53.45;;
63692;Laerm;49838;51.798;10.954;2024-01-16T03:50:23;39.57;33.85;51.76;;
63692;Laerm;49838;51.798;10.954;2024-01-16T03:52:50;36.83;32.35;46.18;;
63692;Laerm;49838;51.798;10.954;2024-01-16T03:55:18;40.97;32.11;55.77;;
63692;Laerm;49838;51.798;10.954;2024-01-16T03:57:45;40.08;33.50;51.88;;
63692;Laerm;49838;51.798;10.954;2024-01-16T04:00:13;36.13;31.95;44.96;;
63692;Laerm;49838;51.798;10.954;2024-01-16T04:02:40;52.27;33.24;68.58;;
63692;Laerm;49838;51.798;10.954;2024-01-16T04:05:07;42.83;34.33;58.59;;
63692;Laerm;49838;51.798;10.954;2024-01-16T04:07:36;43.50;34.28;55.54;;
63692;Laerm;49838;51.798;10.954;2024-01-16T04:10:05;45.10;35.68;67.33;;
63692;Laerm;49838;51.798;10.954;2024-01-16T04:12:33;43.44;36.82;59.16;;
63692;Laerm;49838;51.798;10.954;2024-01-16T04:15:00;39.57;35.84;51.64;;
63692;Laerm;49838;51.798;10.954;2024-01-16T04:17:27;43.80;35.58;63.77;;
63692;Laerm;49838;51.798;10.954;2024-01-16T04:19:55;51.66;37.31;69.10;;
63692;Laerm;49838;51.798;10.954;2024-01-16T04:22:22;49.11;36.25;65.67;;
63692;Laerm;49838;51.798;10.954;2024-01-16T04:24:50;43.89;37.46;59.71;;
63692;Laerm;49838;51.798;10.954;2024-01-16T04:27:18;44.17;34.98;64.55;;
63692;Laerm;49838;51.798;10.954;2024-01-16T04:29:46;56.11;35.71;75.78;;
63692;Laerm;49838;51.798;10.954;2024-01-16T04:32:13;44.64;35.23;60.76;;
63692;Laerm;49838;51.798;10.954;2024-01-16T04:34:40;42.02;36.75;55.84;;
63692;Laerm;49838;51.798;10.954;2024-01-16T04:37:07;65.24;36.41;84.04;;
63692;Laerm;49838;51.798;10.954;2024-01-16T04:39:35;54.18;36.68;74.10;;
63692;Laerm;49838;51.798;10.954;2024-01-16T04:42:04;44.03;36.31;58.48;;
63692;Laerm;49838;51.798;10.954;2024-01-16T04:44:31;67.29;37.83;86.98;;
63692;Laerm;49838;51.798;10.954;2024-01-16T04:46:58;49.57;36.77;64.70;;
63692;Laerm;49838;51.798;10.954;2024-01-16T04:49:25;49.88;36.47;66.95;;
63692;Laerm;49838;51.798;10.954;2024-01-16T04:51:52;43.49;35.75;64.57;;
63692;Laerm;49838;51.798;10.954;2024-01-16T04:54:19;54.83;36.43;69.62;;
63692;Laerm;49838;51.798;10.954;2024-01-16T04:56:47;48.99;38.43;69.21;;
63692;Laerm;49838;51.798;10.954;2024-01-16T04:59:15;65.05;40.51;84.17;;
63692;Laerm;49838;51.798;10.954;2024-01-16T05:01:42;48.91;37.08;65.72;;
63692;Laerm;49838;51.798;10.954;2024-01-16T05:04:10;50.05;35.12;68.58;;
63692;Laerm;49838;51.798;10.954;2024-01-16T05:06:37;50.50;37.64;67.68;;
63692;Laerm;49838;51.798;10.954;2024-01-16T05:09:04;48.55;35.20;67.50;;
63692;Laerm;49838;51.798;10.954;2024-01-16T05:11:31;47.96;36.91;67.50;;
63692;Laerm;49838;51.798;10.954;2024-01-16T05:13:59;46.38;37.30;60.66;;
63692;Laerm;49838;51.798;10.954;2024-01-16T05:16:27;49.55;35.46;63.39;;
63692;Laerm;49838;51.798;10.954;2024-01-16T05:18:54;51.72;36.85;69.31;;
63692;Laerm;49838;51.798;10.954;2024-01-16T05:21:22;51.10;36.60;68.00;;
63692;Laerm;49838;51.798;10.954;2024-01-16T05:23:49;56.85;38.80;76.49;;
63692;Laerm;49838;51.798;10.954;2024-01-16T05:26:16;53.90;38.75;70.31;;
63692;Laerm;49838;51.798;10.954;2024-01-16T05:28:43;52.55;39.75;66.75;;
63692;Laerm;49838;51.798;10.954;2024-01-16T05:31:11;47.28;38.77;60.18;;
63692;Laerm;49838;51.798;10.954;2024-01-16T05:33:40;59.94;37.21;78.61;;
63692;Laerm;49838;51.798;10.954;2024-01-16T05:36:08;49.06;37.18;67.08;;
63692;Laerm;49838;51.798;10.954;2024-01-16T05:38:35;55.80;36.80;70.10;;
63692;Laerm;49838;51.798;10.954;2024-01-16T05:41:03;55.35;39.78;70.47;;
63692;Laerm;49838;51.798;10.954;2024-01-16T05:43:31;56.86;39.23;75.73;;
63692;Laerm;49838;51.798;10.954;2024-01-16T05:45:58;46.14;37.97;68.13;;
63692;Laerm;49838;51.798;10.954;2024-01-16T05:48:26;56.16;39.62;73.53;;
63692;Laerm;49838;51.798;10.954;2024-01-16T05:50:55;54.76;39.32;69.34;;
63692;Laerm;49838;51.798;10.954;2024-01-16T05:53:22;54.98;41.48;68.14;;
63692;Laerm;49838;51.798;10.954;2024-01-16T05:55:49;55.59;41.44;70.11;;
63692;Laerm;49838;51.798;10.954;2024-01-16T05:58:17;62.90;40.13;80.19;;
63692;Laerm;49838;51.798;10.954;2024-01-16T06:00:44;50.96;40.98;67.37;;
63692;Laerm;49838;51.798;10.954;2024-01-16T06:03:11;54.83;41.34;71.80;;
63692;Laerm;49838;51.798;10.954;2024-01-16T06:05:38;53.61;39.65;76.76;;
63692;Laerm;49838;51.798;10.954;2024-01-16T06:08:07;59.06;39.64;78.08;;
63692;Laerm;49838;51.798;10.954;2024-01-16T06:10:35;58.67;38.95;80.26;;
63692;Laerm;49838;51.798;10.954;2024-01-16T06:13:02;61.10;39.36;78.29;;
63692;Laerm;49838;51.798;10.954;2024-01-16T06:15:29;56.96;38.99;76.47;;
63692;Laerm;49838;51.798;10.954;2024-01-16T06:17:57;58.68;37.13;75.73;;
63692;Laerm;49838;51.798;10.954;2024-01-16T06:20:24;55.18;37.53;74.21;;
63692;Laerm;49838;51.798;10.954;2024-01-16T06:22:51;62.55;39.73;80.93;;
63692;Laerm;49838;51.798;10.954;2024-01-16T06:25:20;64.10;38.11;81.04;;
63692;Laerm;49838;51.798;10.954;2024-01-16T06:27:47;62.56;38.59;75.70;;
63692;Laerm;49838;51.798;10.954;2024-01-16T06:30:15;64.81;41.94;83.17;;
63692;Laerm;49838;51.798;10.954;2024-01-16T06:32:42;60.79;39.26;76.57;;
63692;Laerm;49838;51.798;10.954;2024-01-16T06:35:11;64.46;35.86;79.09;;
63692;Laerm;49838;51.798;10.954;2024-01-16T06:37:39;58.54;38.81;74.01;;
63692;Laerm;49838;51.798;10.954;2024-01-16T06:40:07;63.38;42.58;76.89;;
63692;Laerm;49838;51.798;10.954;2024-01-16T06:42:36;47.68;38.26;64.47;;
63692;Laerm;49838;51.798;10.954;2024-01-16T06:45:04;57.81;38.34;72.93;;
63692;Laerm;49838;51.798;10.954;2024-01-16T06:47:32;66.76;40.17;81.05;;
63692;Laerm;49838;51.798;10.954;2024-01-16T06:49:59;51.71;38.16;77.07;;
63692;Laerm;49838;51.798;10.954;2024-01-16T06:52:27;60.14;39.49;75.01;;
63692;Laerm;49838;51.798;10.954;2024-01-16T06:54:54;60.15;39.70;74.35;;
63692;Laerm;49838;51.798;10.954;2024-01-16T06:57:22;50.60;37.77;70.19;;
63692;Laerm;49838;51.798;10.954;2024-01-16T06:59:50;60.93;37.50;75.90;;
63692;Laerm;49838;51.798;10.954;2024-01-16T07:02:17;55.52;36.07;74.75;;
63692;Laerm;49838;51.798;10.954;2024-01-16T07:04:45;41.82;36.08;53.90;;
63692;Laerm;49838;51.798;10.954;2024-01-16T07:07:12;61.23;35.61;75.41;;
63692;Laerm;49838;51.798;10.954;2024-01-16T07:09:39;60.09;40.04;76.73;;
63692;Laerm;49838;51.798;10.954;2024-01-16T07:12:06;57.33;36.07;75.98;;
63692;Laerm;49838;51.798;10.954;2024-01-16T07:14:34;49.86;36.30;70.51;;
63692;Laerm;49838;51.798;10.954;2024-01-16T07:17:03;42.63;35.52;63.42;;
63692;Laerm;49838;51.798;10.954;2024-01-16T07:19:33;55.30;34.63;74.07;;
63692;Laerm;49838;51.798;10.954;2024-01-16T07:22:00;58.26;37.44;79.29;;
63692;Laerm;49838;51.798;10.954;2024-01-16T07:24:28;43.35;36.08;61.24;;
63692;Laerm;49838;51.798;10.954;2024-01-16T07:26:55;51.41;36.85;66.29;;
63692;Laerm;49838;51.798;10.954;2024-01-16T07:29:23;61.91;37.09;81.06;;
63692;Laerm;49838;51.798;10.954;2024-01-16T07:31:50;58.64;36.72;77.85;;
63692;Laerm;49838;51.798;10.954;2024-01-16T07:34:19;60.94;36.68;78.89;;
63692;Laerm;49838;51.798;10.954;2024-01-16T07:36:48;57.75;35.47;77.32;;
63692;Laerm;49838;51.798;10.954;2024-01-16T07:39:15;59.35;36.48;76.63;;
63692;Laerm;49838;51.798;10.954;2024-01-16T07:41:42;39.63;35.71;48.76;;
63692;Laerm;49838;51.798;10.954;2024-01-16T07:44:10;56.32;35.90;76.78;;
63692;Laerm;49838;51.798;10.954;2024-01-16T07:46:37;61.42;35.68;75.77;;
63692;Laerm;49838;51.798;10.954;2024-01-16T07:49:04;55.99;35.27;76.29;;
63692;Laerm;49838;51.798;10.954;2024-01-16T07:51:33;61.37;36.49;78.41;;
63692;Laerm;49838;51.798;10.954;2024-01-16T07:54:05;62.51;35.63;80.94;;
63692;Laerm;49838;51.798;10.954;2024-01-16T07:56:33;55.43;35.61;73.95;;
63692;Laerm;49838;51.798;10.954;2024-01-16T07:59:01;56.80;34.09;74.38;;
63692;Laerm;49838;51.798;10.954;2024-01-16T08:01:28;63.93;37.33;81.71;;
63692;Laerm;49838;51.798;10.954;2024-01-16T08:03:56;59.10;36.39;77.57;;
63692;Laerm;49838;51.798;10.954;2024-01-16T08:06:23;41.33;36.41;58.31;;
63692;Laerm;49838;51.798;10.954;2024-01-16T08:08:52;58.98;39.14;72.55;;
63692;Laerm;49838;51.798;10.954;2024-01-16T08:11:19;58.34;35.81;73.87;;
63692;Laerm;49838;51.798;10.954;2024-01-16T08:13:47;50.65;36.18;71.37;;
63692;Laerm;49838;51.798;10.954;2024-01-16T08:16:14;58.56;35.50;73.66;;
63692;Laerm;49838;51.798;10.954;2024-01-16T08:18:41;67.00;37.72;84.36;;
63692;Laerm;49838;51.798;10.954;2024-01-16T08:21:09;43.28;35.71;57.38;;
63692;Laerm;49838;51.798;10.954;2024-01-16T08:23:36;61.06;36.06;82.83;;
63692;Laerm;49838;51.798;10.954;2024-01-16T08:26:05;62.32;36.31;80.42;;
63692;Laerm;49838;51.798;10.954;2024-01-16T08:28:32;59.60;36.00;76.36;;
63692;Laerm;49838;51.798;10.954;2024-01-16T08:30:59;56.36;36.63;74.96;;
63692;Laerm;49838;51.798;10.954;2024-01-16T08:33:27;62.39;39.44;77.22;;
63692;Laerm;49838;51.798;10.954;2024-01-16T08:35:54;61.69;39.87;75.81;;
63692;Laerm;49838;51.798;10.954;2024-01-16T08:38:21;58.41;35.45;73.46;;
63692;Laerm;49838;51.798;10.954;2024-01-16T08:40:48;64.23;36.27;83.42;;
63692;Laerm;49838;51.798;10.954;2024-01-16T08:43:17;39.58;34.39;58.58;;
63692;Laerm;49838;51.798;10.954;2024-01-16T08:45:44;58.38;35.99;73.98;;
63692;Laerm;49838;51.798;10.954;2024-01-16T08:48:13;65.17;36.13;83.64;;
63692;Laerm;49838;51.798;10.954;2024-01-16T08:50:42;56.92;35.00;72.35;;
63692;Laerm;49838;51.798;10.954;2024-01-16T08:53:09;57.56;34.68;71.91;;
63692;Laerm;49838;51.798;10.954;2024-01-16T08:55:37;54.59;36.48;73.58;;
63692;Laerm;49838;51.798;10.954;2024-01-16T08:58:04;62.10;37.77;77.23;;
63692;Laerm;49838;51.798;10.954;2024-01-16T09:00:32;62.74;35.29;82.45;;
63692;Laerm;49838;51.798;10.954;2024-01-16T09:03:00;63.66;36.00;78.10;;
63692;Laerm;49838;51.798;10.954;2024-01-16T09:05:27;61.50;36.53;76.15;;
63692;Laerm;49838;51.798;10.954;2024-01-16T09:07:55;56.95;35.20;73.52;;
63692;Laerm;49838;51.798;10.954;2024-01-16T09:10:22;56.71;36.19;74.95;;
63692;Laerm;49838;51.798;10.954;2024-01-16T09:12:49;62.97;38.62;76.86;;
63692;Laerm;49838;51.798;10.954;2024-01-16T09:15:16;57.67;37.39;74.99;;
63692;Laerm;49838;51.798;10.954;2024-01-16T09:17:45;58.13;34.65;77.36;;
63692;Laerm;49838;51.798;10.954;2024-01-16T09:20:12;63.08;34.27;77.55;;
63692;Laerm;49838;51.798;10.954;2024-01-16T09:22:40;61.00;37.39;78.03;;
63692;Laerm;49838;51.798;10.954;2024-01-16T09:25:07;60.28;36.51;80.50;;
63692;Laerm;49838;51.798;10.954;2024-01-16T09:27:34;53.21;35.81;71.63;;
63692;Laerm;49838;51.798;10.954;2024-01-16T09:30:02;61.72;38.06;80.86;;
63692;Laerm;49838;51.798;10.954;2024-01-16T09:32:30;54.14;35.84;73.39;;
63692;Laerm;49838;51.798;10.954;2024-01-16T09:34:58;64.03;36.12;80.60;;
63692;Laerm;49838;51.798;10.954;2024-01-16T09:37:28;60.60;35.78;75.39;;
63692;Laerm;49838;51.798;10.954;2024-01-16T09:39:56;63.15;40.49;78.62;;
63692;Laerm;49838;51.798;10.954;2024-01-16T09:42:23;61.97;36.35;76.22;;
63692;Laerm;49838;51.798;10.954;2024-01-16T09:44:52;54.91;36.83;73.61;;
63692;Laerm;49838;51.798;10.954;2024-01-16T09:47:19;60.57;37.60;73.78;;
63692;Laerm;49838;51.798;10.954;2024-01-16T09:49:46;57.69;37.55;74.64;;
63692;Laerm;49838;51.798;10.954;2024-01-16T09:52:15;61.16;38.36;78.46;;
63692;Laerm;49838;51.798;10.954;2024-01-16T09:54:42;60.97;38.88;73.35;;
63692;Laerm;49838;51.798;10.954;2024-01-16T09:57:12;58.75;36.66;73.12;;
63692;Laerm;49838;51.798;10.954;2024-01-16T09:59:40;55.94;34.58;73.60;;
63692;Laerm;49838;51.798;10.954;2024-01-16T10:02:10;60.63;34.81;79.66;;
63692;Laerm;49838;51.798;10.954;2024-01-16T10:04:37;61.71;36.63;78.17;;
63692;Laerm;49838;51.798;10.954;2024-01-16T10:07:05;55.10;35.47;74.92;;
63692;Laerm;49838;51.798;10.954;2024-01-16T10:09:34;62.15;39.80;76.10;;
63692;Laerm;49838;51.798;10.954;2024-01-16T10:12:01;57.20;36.41;73.36;;
63692;Laerm;49838;51.798;10.954;2024-01-16T10:14:30;62.63;35.39;80.73;;
63692;Laerm;49838;51.798;10.954;2024-01-16T10:16:58;61.65;37.80;79.18;;
63692;Laerm;49838;51.798;10.954;2024-01-16T10:19:29;60.50;40.27;77.43;;
63692;Laerm;49838;51.798;10.954;2024-01-16T10:22:01;59.91;38.31;86.35;;
63692;Laerm;49838;51.798;10.954;2024-01-16T10:24:28;63.99;37.46;81.00;;
63692;Laerm;49838;51.798;10.954;2024-01-16T10:27:01;62.36;40.99;78.59;;
63692;Laerm;49838;51.798;10.954;2024-01-16T10:29:29;60.44;37.86;75.42;;
63692;Laerm;49838;51.798;10.954;2024-01-16T10:31:57;58.49;38.36;76.86;;
63692;Laerm;49838;51.798;10.954;2024-01-16T10:34:24;65.68;38.05;82.58;;
63692;Laerm;49838;51.798;10.954;2024-01-16T10:36:58;59.08;38.10;76.38;;
63692;Laerm;49838;51.798;10.954;2024-01-16T10:39:29;56.33;36.53;72.70;;
63692;Laerm;49838;51.798;10.954;2024-01-16T10:41:56;60.30;38.44;77.79;;
63692;Laerm;49838;51.798;10.954;2024-01-16T10:44:25;58.25;36.01;74.93;;
63692;Laerm;49838;51.798;10.954;2024-01-16T10:47:09;59.09;36.31;76.67;;
63692;Laerm;49838;51.798;10.954;2024-01-16T10:49:37;54.94;37.91;70.77;;
63692;Laerm;49838;51.798;10.954;2024-01-16T10:52:09;60.38;37.60;80.33;;
63692;Laerm;49838;51.798;10.954;2024-01-16T10:54:41;57.33;37.05;74.63;;
63692;Laerm;49838;51.798;10.954;2024-01-16T10:57:10;54.81;37.21;73.14;;
63692;Laerm;49838;51.798;10.954;2024-01-16T10:59:44;65.38;38.89;84.12;;
63692;Laerm;49838;51.798;10.954;2024-01-16T11:02:15;53.37;39.78;72.25;;
63692;Laerm;49838;51.798;10.954;2024-01-16T11:04:47;61.08;39.18;75.84;;
63692;Laerm;49838;51.798;10.954;2024-01-16T11:07:16;58.86;38.85;71.66;;
63692;Laerm;49838;51.798;10.954;2024-01-16T11:09:44;61.37;37.15;75.98;;
63692;Laerm;49838;51.798;10.954;2024-01-16T11:12:11;56.89;37.24;70.39;;
63692;Laerm;49838;51.798;10.954;2024-01-16T11:14:45;55.82;37.79;72.78;;
63692;Laerm;49838;51.798;10.954;2024-01-16T11:17:17;61.53;36.00;77.70;;
63692;Laerm;49838;51.798;10.954;2024-01-16T11:19:47;57.75;37.23;71.26;;
63692;Laerm;49838;51.798;10.954;2024-01-16T11:22:15;58.69;37.27;75.90;;
63692;Laerm;49838;51.798;10.954;2024-01-16T11:24:43;60.10;38.32;81.60;;
63692;Laerm;49838;51.798;10.954;2024-01-16T11:27:21;58.37;39.84;75.35;;
63692;Laerm;49838;51.798;10.954;2024-01-16T11:29:51;54.71;37.37;70.06;;
63692;Laerm;49838;51.798;10.954;2024-01-16T11:32:32;56.43;35.77;73.67;;
63692;Laerm;49838;51.798;10.954;2024-01-16T11:35:00;56.66;35.12;74.55;;
63692;Laerm;49838;51.798;10.954;2024-01-16T11:37:28;63.04;36.39;76.02;;
63692;Laerm;49838;51.798;10.954;2024-01-16T11:40:23;58.84;36.00;73.25;;
63692;Laerm;49838;51.798;10.954;2024-01-16T11:42:53;60.51;36.00;81.71;;
63692;Laerm;49838;51.798;10.954;2024-01-16T11:45:49;57.48;36.34;73.20;;
63692;Laerm;49838;51.798;10.954;2024-01-16T11:48:17;52.91;35.64;68.65;;
63692;Laerm;49838;51.798;10.954;2024-01-16T11:50:46;56.39;37.13;75.09;;
63692;Laerm;49838;51.798;10.954;2024-01-16T11:53:35;59.98;36.66;73.35;;
63692;Laerm;49838;51.798;10.954;2024-01-16T11:56:15;60.24;36.56;85.02;;
63692;Laerm;49838;51.798;10.954;2024-01-16T11:58:57;60.11;36.02;74.20;;
63692;Laerm;49838;51.798;10.954;2024-01-16T12:01:30;51.62;35.16;68.77;;
63692;Laerm;49838;51.798;10.954;2024-01-16T12:04:04;55.75;34.99;72.06;;
63692;Laerm;49838;51.798;10.954;2024-01-16T12:06:31;54.93;37.09;76.77;;
63692;Laerm;49838;51.798;10.954;2024-01-16T12:09:11;59.11;37.25;73.57;;
63692;Laerm;49838;51.798;10.954;2024-01-16T12:11:40;48.15;35.51;64.03;;
63692;Laerm;49838;51.798;10.954;2024-01-16T12:14:09;55.63;36.50;71.12;;
63692;Laerm;49838;51.798;10.954;2024-01-16T12:16:37;54.64;37.25;74.59;;
63692;Laerm;49838;51.798;10.954;2024-01-16T12:19:06;56.95;36.95;72.75;;
63692;Laerm;49838;51.798;10.954;2024-01-16T12:21:35;56.26;35.77;71.57;;
63692;Laerm;49838;51.798;10.954;2024-01-16T12:24:02;60.31;38.51;74.58;;
63692;Laerm;49838;51.798;10.954;2024-01-16T12:26:30;50.43;37.00;69.61;;
63692;Laerm;49838;51.798;10.954;2024-01-16T12:28:58;65.32;37.61;84.45;;
63692;Laerm;49838;51.798;10.954;2024-01-16T12:31:27;58.76;37.16;78.79;;
63692;Laerm;49838;51.798;10.954;2024-01-16T12:34:04;60.16;36.53;75.04;;
63692;Laerm;49838;51.798;10.954;2024-01-16T12:36:33;48.80;36.36;65.37;;
63692;Laerm;49838;51.798;10.954;2024-01-16T12:39:00;54.87;37.94;76.25;;
63692;Laerm;49838;51.798;10.954;2024-01-16T12:41:31;58.27;37.19;72.70;;
63692;Laerm;49838;51.798;10.954;2024-01-16T12:44:00;58.10;35.32;80.79;;
63692;Laerm;49838;51.798;10.954;2024-01-16T12:46:27;58.57;37.17;71.80;;
63692;Laerm;49838;51.798;10.954;2024-01-16T12:49:01;61.34;37.25;82.81;;
63692;Laerm;49838;51.798;10.954;2024-01-16T12:51:29;62.30;35.34;84.51;;
63692;Laerm;49838;51.798;10.954;2024-01-16T12:54:10;55.36;37.34;71.54;;
63692;Laerm;49838;51.798;10.954;2024-01-16T12:56:39;58.35;38.41;74.34;;
63692;Laerm;49838;51.798;10.954;2024-01-16T12:59:10;52.55;34.64;68.32;;
63692;Laerm;49838;51.798;10.954;2024-01-16T13:01:39;58.70;35.06;79.85;;
63692;Laerm;49838;51.798;10.954;2024-01-16T13:04:10;57.48;35.64;73.58;;
63692;Laerm;49838;51.798;10.954;2024-01-16T13:06:38;59.43;39.53;71.96;;
63692;Laerm;49838;51.798;10.954;2024-01-16T13:09:07;61.45;35.75;79.88;;
63692;Laerm;49838;51.798;10.954;2024-01-16T13:11:49;56.22;36.23;73.08;;
63692;Laerm;49838;51.798;10.954;2024-01-16T13:14:17;53.80;35.01;69.48;;
63692;Laerm;49838;51.798;10.954;2024-01-16T13:16:44;52.25;34.91;69.42;;
63692;Laerm;49838;51.798;10.954;2024-01-16T13:19:16;55.73;34.80;72.72;;
63692;Laerm;49838;51.798;10.954;2024-01-16T13:21:43;60.76;36.70;75.77;;
63692;Laerm;49838;51.798;10.954;2024-01-16T13:24:11;56.05;37.33;72.46;;
63692;Laerm;49838;51.798;10.954;2024-01-16T13:26:38;61.40;37.01;91.68;;
63692;Laerm;49838;51.798;10.954;2024-01-16T13:29:06;47.70;37.06;64.77;;
63692;Laerm;49838;51.798;10.954;2024-01-16T13:31:34;60.11;37.87;75.52;;
63692;Laerm;49838;51.798;10.954;2024-01-16T13:34:01;62.79;38.20;78.76;;
63692;Laerm;49838;51.798;10.954;2024-01-16T13:36:30;56.08;36.37;71.55;;
63692;Laerm;49838;51.798;10.954;2024-01-16T13:38:57;53.42;36.53;72.17;;